Beaux Arts Village, Washington
Current Conditions -  °F | °C
As of 3:53 AM on Thursday 18 Dec 2014 (Local Time) from KBFI Reporting Station
Overcast Overcast  
Wind Chill: 43°   Ceiling: 900
Heat Index: 47°   Visibility: 9mi
Dew Point: 44°   Wind: 9mph
Humidity: 90%   Direction: 140°SE
Pressure: 29.95"   Gusts: NA
Location:  47.6186°N, 122.204°W
Report Text: KBFI 181153Z 14008KT 9SM FEW006 BKN009 OVC022 08/07 A2995 RMK AO2 CIG 008V012 SLP141 60006 70019 T00830067 10094 20083 50006
Loading
Personal Weather Stations






























Interactive Weather Map New forecast layout! Learn more

10-Day Weather Forecast

Advertisements
Track Severe Weather on mobile